createdAt,value
2022-09-03T00:00:01.653Z,0
2022-09-03T00:05:01.625Z,0
2022-09-03T00:10:01.525Z,0
2022-09-03T00:15:01.596Z,0
2022-09-03T00:20:01.748Z,0
2022-09-03T00:25:01.558Z,0
2022-09-03T00:30:01.530Z,0
2022-09-03T00:35:01.601Z,0
2022-09-03T00:40:01.708Z,0
2022-09-03T00:45:01.657Z,0
2022-09-03T00:50:01.573Z,0
2022-09-03T00:55:01.716Z,0
2022-09-03T01:00:01.632Z,0
2022-09-03T01:05:01.571Z,0
2022-09-03T01:10:01.654Z,0
2022-09-03T01:15:01.786Z,0
2022-09-03T01:20:01.723Z,0
2022-09-03T01:25:01.571Z,0
2022-09-03T01:30:01.832Z,0
2022-09-03T01:35:01.771Z,0
2022-09-03T01:40:01.797Z,0
2022-09-03T01:45:01.701Z,0
2022-09-03T01:50:01.809Z,0
2022-09-03T01:55:01.604Z,0
2022-09-03T02:00:01.608Z,0
2022-09-03T02:05:01.631Z,0
2022-09-03T02:10:02.114Z,0
2022-09-03T02:15:01.649Z,0
2022-09-03T02:20:01.724Z,0
2022-09-03T02:25:01.657Z,0
2022-09-03T02:30:01.852Z,0
2022-09-03T02:35:01.622Z,0
2022-09-03T02:40:01.735Z,0
2022-09-03T02:45:01.662Z,0
2022-09-03T02:50:01.889Z,0
2022-09-03T02:55:01.676Z,0
2022-09-03T03:00:01.666Z,0
2022-09-03T03:05:01.787Z,0
2022-09-03T03:10:01.723Z,0
2022-09-03T03:15:01.748Z,0
2022-09-03T03:20:01.690Z,0
2022-09-03T03:25:01.856Z,0
2022-09-03T03:30:01.670Z,0
2022-09-03T03:35:01.702Z,0
2022-09-03T03:40:01.769Z,0
2022-09-03T03:45:01.884Z,0
2022-09-03T03:50:01.724Z,0
2022-09-03T03:55:01.767Z,0
2022-09-03T04:00:01.706Z,0
2022-09-03T04:05:01.974Z,0
2022-09-03T04:10:01.707Z,0
2022-09-03T04:15:01.736Z,0
2022-09-03T04:20:01.732Z,0
2022-09-03T04:25:01.981Z,0
2022-09-03T04:30:01.892Z,0.28295238095238096
2022-09-03T04:35:01.874Z,0.3776931216931217
2022-09-03T04:40:01.920Z,0.3993333333333333
2022-09-03T04:45:02.269Z,0.5231746031746032
2022-09-03T04:50:01.796Z,0.580994708994709
2022-09-03T04:55:01.738Z,0.9614603174603175
2022-09-03T05:00:01.758Z,1.493079365079365
2022-09-03T05:05:01.971Z,1.6797142857142857
2022-09-03T05:10:01.788Z,2.2208571428571426
2022-09-03T05:15:01.771Z,2.6151216931216936
2022-09-03T05:20:01.864Z,3.161883597883598
2022-09-03T05:25:01.769Z,3.001037037037037
2022-09-03T05:30:01.779Z,3.491809523809524
2022-09-03T05:35:01.864Z,3.3419788359788356
2022-09-03T05:40:01.977Z,3.471830687830688
2022-09-03T05:45:01.995Z,4.025703703703704
2022-09-03T05:50:01.820Z,6.197280423280423
2022-09-03T05:55:01.821Z,7.901830687830688
2022-09-03T06:00:01.934Z,6.656539682539682
2022-09-03T06:05:01.818Z,6.941005291005292
2022-09-03T06:10:01.814Z,7.095227513227513
2022-09-03T06:15:01.821Z,6.8582645502645505
2022-09-03T06:20:02.046Z,6.144486772486772
2022-09-03T06:25:01.856Z,10.392264550264551
2022-09-03T06:30:01.844Z,10.87647619047619
2022-09-03T06:35:01.973Z,12.315439153439153
2022-09-03T06:40:02.154Z,19.065798941798942
2022-09-03T06:45:01.886Z,19.93937566137566
2022-09-03T06:50:02.021Z,14.098412698412698
2022-09-03T06:55:01.961Z,17.82941798941799
2022-09-03T07:00:01.926Z,12.625227513227513
2022-09-03T07:05:01.974Z,13.815640211640211
2022-09-03T07:10:01.910Z,9.782507936507937
2022-09-03T07:15:01.972Z,9.298232804232805
2022-09-03T07:20:01.894Z,13.141682539682542
2022-09-03T07:25:01.897Z,17.59557671957672
2022-09-03T07:30:01.937Z,19.468751322751324
2022-09-03T07:35:02.100Z,26.255164021164017
2022-09-03T07:40:02.065Z,40.97746031746032
2022-09-03T07:45:01.905Z,38.66028571428571
2022-09-03T07:50:02.152Z,43.09148148148148
2022-09-03T07:55:02.160Z,17.954698412698413
2022-09-03T08:00:01.927Z,31.803544973544973
2022-09-03T08:05:02.204Z,20.04764021164021
2022-09-03T08:10:02.180Z,20.230031746031745
2022-09-03T08:15:01.967Z,22.57416931216931
2022-09-03T08:20:01.944Z,18.285375661375664
2022-09-03T08:25:01.939Z,13.580190476190475
2022-09-03T08:30:02.160Z,14.76695238095238
2022-09-03T08:35:01.976Z,14.378772486772487
2022-09-03T08:40:02.185Z,17.35826455026455
2022-09-03T08:45:02.104Z,14.80984126984127
2022-09-03T08:50:01.953Z,16.137449735449735
2022-09-03T08:55:01.977Z,17.545174603174605
2022-09-03T09:00:02.075Z,14.105608465608466
2022-09-03T09:05:02.160Z,14.40689947089947
2022-09-03T09:10:01.981Z,13.420264550264548
2022-09-03T09:15:02.134Z,9.375428571428571
2022-09-03T09:20:02.321Z,7.694708994708995
2022-09-03T09:25:02.067Z,10.578275132275133
2022-09-03T09:30:02.075Z,17.42574603174603
2022-09-03T09:35:01.991Z,20.91344973544974
2022-09-03T09:40:02.320Z,23.421978835978834
2022-09-03T09:45:01.997Z,28.279619047619047
2022-09-03T09:50:02.119Z,35.09331216931217
2022-09-03T09:55:02.149Z,45.96301587301587
2022-09-03T10:00:02.025Z,23.458825396825397
2022-09-03T10:05:02.071Z,17.39633862433862
2022-09-03T10:10:02.050Z,12.901121693121691
2022-09-03T10:15:02.286Z,34.79575661375661
2022-09-03T10:20:02.045Z,75.83493121693121
2022-09-03T10:25:02.069Z,20.526592592592593
2022-09-03T10:30:02.171Z,16.18068783068783
2022-09-03T10:35:02.092Z,20.01409523809524
2022-09-03T10:40:02.097Z,30.91762962962963
2022-09-03T10:45:02.071Z,31.27764021164021
2022-09-03T10:50:02.405Z,27.577037037037037
2022-09-03T10:55:02.067Z,22.616285714285713
2022-09-03T11:00:02.112Z,20.123873015873016
2022-09-03T11:05:02.223Z,14.436560846560848
2022-09-03T11:10:02.120Z,9.703280423280424
2022-09-03T11:15:02.101Z,4.104052910052911
2022-09-03T11:20:02.276Z,3.25362962962963
2022-09-03T11:25:02.415Z,5.953714285714286
2022-09-03T11:30:02.075Z,10.14826455026455
2022-09-03T11:35:02.110Z,14.022285714285715
2022-09-03T11:40:02.363Z,13.741640211640213
2022-09-03T11:45:02.105Z,10.676507936507937
2022-09-03T11:50:02.232Z,8.463735449735449
2022-09-03T11:55:02.301Z,7.761682539682541
2022-09-03T12:00:02.217Z,9.578560846560846
2022-09-03T12:05:06.737Z,9.846571428571428
2022-09-03T12:20:02.304Z,11.744592592592593
2022-09-03T12:25:02.182Z,13.926476190476192
2022-09-03T12:30:02.434Z,16.537079365079364
2022-09-03T12:35:02.204Z,13.775269841269841
2022-09-03T12:40:07.231Z,10.880211640211641
2022-09-03T12:45:02.310Z,11.744878306878308
2022-09-03T12:50:02.217Z,11.969513227513225
2022-09-03T12:55:02.194Z,11.890021164021164
2022-09-03T13:00:02.190Z,13.35405291005291
2022-09-03T13:05:02.333Z,15.048031746031745
2022-09-03T13:10:02.225Z,28.900126984126985
2022-09-03T13:15:02.295Z,70.2110052910053
2022-09-03T13:20:02.271Z,78.81091005291006
2022-09-03T13:25:02.241Z,74.78143915343915
2022-09-03T13:30:02.232Z,73.93816931216931
2022-09-03T13:35:02.327Z,71.70032804232804
2022-09-03T13:40:02.477Z,71.85796825396827
2022-09-03T13:45:02.250Z,60.88276190476191
2022-09-03T13:50:02.242Z,46.51117460317461
2022-09-03T13:55:02.385Z,82.81582010582011
2022-09-03T14:00:02.261Z,42.77637037037037
2022-09-03T14:05:02.310Z,73.21782010582011
2022-09-03T14:10:02.246Z,61.41361904761905
2022-09-03T14:15:02.453Z,32.21196825396825
2022-09-03T14:20:02.255Z,11.743407407407407
2022-09-03T14:25:02.418Z,9.607037037037038
2022-09-03T14:30:02.441Z,8.700962962962963
2022-09-03T14:35:02.280Z,7.999322751322752
2022-09-03T14:40:02.541Z,8.331767195767195
2022-09-03T14:45:02.523Z,7.679269841269841
2022-09-03T14:50:02.311Z,6.710719576719577
2022-09-03T14:55:02.348Z,5.991375661375662
2022-09-03T15:00:02.493Z,7.231989417989418
2022-09-03T15:05:02.405Z,26.685185185185183
2022-09-03T15:10:02.611Z,53.6953544973545
2022-09-03T15:15:02.302Z,51.45627513227513
2022-09-03T15:20:02.335Z,52.17986243386243
2022-09-03T15:25:02.279Z,23.995650793650793
2022-09-03T15:30:02.432Z,24.966687830687828
2022-09-03T15:35:02.553Z,31.567428571428568
2022-09-03T15:40:02.351Z,31.158994708994708
2022-09-03T15:45:02.393Z,29.9092380952381
2022-09-03T15:50:02.554Z,23.457333333333334
2022-09-03T15:55:02.421Z,9.750761904761905
2022-09-03T16:00:02.326Z,5.927259259259259
2022-09-03T16:05:02.609Z,4.726973544973545
2022-09-03T16:10:23.604Z,5.496867724867725
2022-09-03T16:15:02.340Z,5.619608465608466
2022-09-03T16:20:02.528Z,6.255322751322752
2022-09-03T16:25:02.359Z,5.875862433862434
2022-09-03T16:30:02.388Z,4.975343915343915
2022-09-03T16:35:02.549Z,5.615216931216931
2022-09-03T16:40:02.466Z,13.359756613756616
2022-09-03T16:45:02.359Z,4.5086666666666675
2022-09-03T16:50:02.490Z,4.794740740740741
2022-09-03T16:55:02.399Z,15.141407407407408
2022-09-03T17:00:02.416Z,10.232084656084655
2022-09-03T17:05:02.452Z,4.978634920634921
2022-09-03T17:10:02.391Z,1.8178518518518518
2022-09-03T17:15:02.373Z,1.0571640211640212
2022-09-03T17:20:02.454Z,0.7884232804232805
2022-09-03T17:25:02.708Z,0.6151534391534391
2022-09-03T17:30:02.446Z,0.419968253968254
2022-09-03T17:35:02.482Z,0.4397460317460317
2022-09-03T17:40:02.756Z,0.29694179894179895
2022-09-03T17:45:02.412Z,0.24074074074074076
2022-09-03T17:50:02.474Z,0.11065608465608467
2022-09-03T17:55:02.480Z,0
2022-09-03T18:00:02.775Z,0
2022-09-03T18:05:02.511Z,0
2022-09-03T18:10:02.477Z,0
2022-09-03T18:15:02.707Z,0
2022-09-03T18:20:02.441Z,0
2022-09-03T18:25:02.472Z,0
2022-09-03T18:30:02.878Z,0
2022-09-03T18:35:02.468Z,0
2022-09-03T18:40:02.532Z,0
2022-09-03T18:45:20.083Z,0
2022-09-03T18:50:02.621Z,0
2022-09-03T18:55:08.112Z,0
2022-09-03T19:00:02.517Z,0
2022-09-03T19:05:02.668Z,0
2022-09-03T19:10:02.614Z,0
2022-09-03T19:15:02.505Z,0
2022-09-03T19:20:02.822Z,0
2022-09-03T19:25:02.521Z,0
2022-09-03T19:30:02.774Z,0
2022-09-03T19:35:02.640Z,0
2022-09-03T19:40:02.590Z,0
2022-09-03T19:45:02.577Z,0
2022-09-03T19:50:02.530Z,0
2022-09-03T19:55:02.731Z,0
2022-09-03T20:00:02.581Z,0
2022-09-03T20:05:02.658Z,0
2022-09-03T20:10:02.574Z,0
2022-09-03T20:15:02.542Z,0
2022-09-03T20:20:02.576Z,0
2022-09-03T20:25:02.616Z,0
2022-09-03T20:30:02.788Z,0
2022-09-03T20:35:02.625Z,0
2022-09-03T20:40:02.620Z,0
2022-09-03T20:45:02.790Z,0
2022-09-03T20:50:02.823Z,0
2022-09-03T20:55:02.601Z,0
2022-09-03T21:00:02.637Z,0
2022-09-03T21:05:02.608Z,0
2022-09-03T21:10:02.890Z,0
2022-09-03T21:15:02.630Z,0
2022-09-03T21:20:02.724Z,0
2022-09-03T21:25:02.720Z,0
2022-09-03T21:30:02.809Z,0
2022-09-03T21:35:02.602Z,0
2022-09-03T21:40:06.218Z,0
2022-09-03T21:45:02.745Z,0
2022-09-03T21:50:02.841Z,0
2022-09-03T21:55:02.643Z,0
2022-09-03T22:00:02.653Z,0
2022-09-03T22:05:02.875Z,0
2022-09-03T22:10:02.657Z,0
2022-09-03T22:15:02.655Z,0
2022-09-03T22:20:02.810Z,0
2022-09-03T22:25:02.848Z,0
2022-09-03T22:30:02.723Z,0
2022-09-03T22:35:02.651Z,0
2022-09-03T22:40:02.813Z,0
2022-09-03T22:45:02.823Z,0
2022-09-03T22:50:02.695Z,0
2022-09-03T22:55:02.671Z,0
2022-09-03T23:00:02.672Z,0
2022-09-03T23:05:02.853Z,0
2022-09-03T23:10:02.711Z,0
2022-09-03T23:15:02.767Z,0
2022-09-03T23:25:03.000Z,0
2022-09-03T23:30:02.748Z,0
2022-09-03T23:35:02.716Z,0
2022-09-03T23:40:02.858Z,0
2022-09-03T23:45:02.964Z,0
2022-09-03T23:50:02.758Z,0
2022-09-03T23:55:02.774Z,0
